DLH7MJ EDDF-LICJ
Flight info
| Callsign | DLH7MJ |
|---|---|
| Flight time | 1h 54m |
| Altitude | 33000 |
| Route | ANEKI2L/18 ANEKI Y163 NATOR DCT TRA DCT RIPUS DCT GERSA DCT SOSON DCT ODINA DCT ELB DCT VELAD DCT TINTO DCT POKAV DCT BETOT DCT RUVIP DCT RONAB DCT GIANO |
| Aircraft | A21N/M-SDE2E3FGHIRWXY/LB1 |
Departure
| Time | 2026-04-14 13:19 |
|---|---|
| Airport | Frankfurt Main Airport (EDDF) |
Arrival
| Time | 2026-04-14 15:13 |
|---|---|
| Airport | Falcone–Borsellino Airport (LICJ) |
| Time | Latitude | Longitude | Altitude | Speed | Heading |
|---|---|---|---|---|---|
| 2026-04-14 12:32 | 50.04418 | 8.56274 | 361 ft | 0 kts | 162° |
| 2026-04-14 13:07 | 50.04420 | 8.56273 | 361 ft | 2 kts | 162° |
| 2026-04-14 13:07 | 50.04445 | 8.56261 | 364 ft | 4 kts | 162° |
| 2026-04-14 13:08 | 50.04471 | 8.56250 | 361 ft | 4 kts | 177° |
| 2026-04-14 13:08 | 50.04487 | 8.56261 | 361 ft | 4 kts | 246° |
| 2026-04-14 13:08 | 50.04485 | 8.56253 | 361 ft | 4 kts | 249° |
| 2026-04-14 13:08 | 50.04476 | 8.56213 | 362 ft | 4 kts | 250° |
| 2026-04-14 13:09 | 50.04466 | 8.56174 | 366 ft | 4 kts | 250° |
| 2026-04-14 13:09 | 50.04457 | 8.56134 | 365 ft | 4 kts | 250° |
| 2026-04-14 13:09 | 50.04455 | 8.56126 | 364 ft | 0 kts | 250° |
| 2026-04-14 13:12 | 50.04451 | 8.56110 | 366 ft | 4 kts | 250° |
| 2026-04-14 13:12 | 50.04436 | 8.56053 | 363 ft | 8 kts | 236° |
| 2026-04-14 13:13 | 50.04380 | 8.56032 | 365 ft | 10 kts | 161° |
| 2026-04-14 13:13 | 50.04313 | 8.56072 | 360 ft | 11 kts | 161° |
| 2026-04-14 13:13 | 50.04255 | 8.56008 | 362 ft | 12 kts | 250° |
| 2026-04-14 13:13 | 50.04224 | 8.55877 | 365 ft | 14 kts | 249° |
| 2026-04-14 13:14 | 50.04189 | 8.55731 | 362 ft | 15 kts | 249° |
| 2026-04-14 13:14 | 50.04151 | 8.55572 | 359 ft | 16 kts | 250° |
| 2026-04-14 13:14 | 50.04110 | 8.55400 | 364 ft | 18 kts | 250° |
| 2026-04-14 13:14 | 50.04066 | 8.55212 | 362 ft | 19 kts | 250° |
| 2026-04-14 13:15 | 50.04018 | 8.55011 | 360 ft | 20 kts | 250° |
| 2026-04-14 13:15 | 50.03967 | 8.54801 | 364 ft | 21 kts | 250° |
| 2026-04-14 13:15 | 50.03914 | 8.54578 | 356 ft | 22 kts | 249° |
| 2026-04-14 13:15 | 50.03855 | 8.54351 | 356 ft | 23 kts | 237° |
| 2026-04-14 13:16 | 50.03775 | 8.54127 | 355 ft | 24 kts | 251° |
| 2026-04-14 13:16 | 50.03718 | 8.53875 | 357 ft | 25 kts | 250° |
| 2026-04-14 13:16 | 50.03653 | 8.53614 | 350 ft | 26 kts | 248° |
| 2026-04-14 13:16 | 50.03585 | 8.53341 | 350 ft | 27 kts | 249° |
| 2026-04-14 13:17 | 50.03518 | 8.53059 | 351 ft | 26 kts | 250° |
| 2026-04-14 13:17 | 50.03475 | 8.52883 | 347 ft | 27 kts | 245° |
| 2026-04-14 13:17 | 50.03411 | 8.52631 | 340 ft | 12 kts | 251° |
| 2026-04-14 13:17 | 50.03366 | 8.52592 | 338 ft | 9 kts | 180° |
| 2026-04-14 13:18 | 50.03308 | 8.52593 | 339 ft | 25 kts | 179° |
| 2026-04-14 13:18 | 50.02873 | 8.52600 | 341 ft | 100 kts | 180° |
| 2026-04-14 13:18 | 50.01953 | 8.52606 | 336 ft | 161 kts | 180° |
| 2026-04-14 13:18 | 50.00703 | 8.52617 | 618 ft | 181 kts | 180° |
| 2026-04-14 13:19 | 49.99442 | 8.52655 | 1304 ft | 185 kts | 178° |
| 2026-04-14 13:19 | 49.98119 | 8.52774 | 1866 ft | 198 kts | 175° |
| 2026-04-14 13:19 | 49.96684 | 8.52919 | 2341 ft | 214 kts | 176° |
| 2026-04-14 13:19 | 49.95150 | 8.53024 | 2817 ft | 235 kts | 178° |
| 2026-04-14 13:20 | 49.93467 | 8.53098 | 3555 ft | 242 kts | 178° |
| 2026-04-14 13:20 | 49.91773 | 8.53148 | 4426 ft | 247 kts | 178° |
| 2026-04-14 13:20 | 49.90039 | 8.53224 | 4843 ft | 249 kts | 176° |
| 2026-04-14 13:20 | 49.88300 | 8.53382 | 5217 ft | 251 kts | 175° |
| 2026-04-14 13:21 | 49.86569 | 8.53555 | 5591 ft | 253 kts | 175° |
| 2026-04-14 13:21 | 49.84798 | 8.53729 | 6088 ft | 257 kts | 176° |
| 2026-04-14 13:21 | 49.83037 | 8.53846 | 7046 ft | 254 kts | 177° |
| 2026-04-14 13:21 | 49.81258 | 8.53942 | 7821 ft | 257 kts | 178° |
| 2026-04-14 13:22 | 49.79451 | 8.54030 | 8619 ft | 259 kts | 178° |
| 2026-04-14 13:22 | 49.77651 | 8.54073 | 9537 ft | 256 kts | 183° |
| 2026-04-14 13:22 | 49.75870 | 8.53878 | 10337 ft | 260 kts | 186° |
| 2026-04-14 13:22 | 49.74020 | 8.53628 | 10671 ft | 279 kts | 186° |
| 2026-04-14 13:23 | 49.72012 | 8.53352 | 10953 ft | 300 kts | 186° |
| 2026-04-14 13:23 | 49.69852 | 8.53060 | 11222 ft | 321 kts | 186° |
| 2026-04-14 13:23 | 49.67570 | 8.52755 | 11604 ft | 336 kts | 186° |
| 2026-04-14 13:23 | 49.65211 | 8.52442 | 12245 ft | 342 kts | 186° |
| 2026-04-14 13:24 | 49.62812 | 8.52126 | 12997 ft | 346 kts | 186° |
| 2026-04-14 13:24 | 49.57959 | 8.51487 | 14418 ft | 354 kts | 186° |
| 2026-04-14 13:24 | 49.55522 | 8.51167 | 15066 ft | 358 kts | 186° |
| 2026-04-14 13:25 | 49.53022 | 8.50840 | 15737 ft | 361 kts | 186° |
| 2026-04-14 13:25 | 49.50496 | 8.50509 | 16391 ft | 365 kts | 186° |
| 2026-04-14 13:26 | 49.42781 | 8.49498 | 18320 ft | 376 kts | 186° |
| 2026-04-14 13:26 | 49.40191 | 8.49160 | 18886 ft | 380 kts | 186° |
| 2026-04-14 13:26 | 49.37544 | 8.48814 | 19456 ft | 382 kts | 186° |
| 2026-04-14 13:26 | 49.34887 | 8.48467 | 20031 ft | 384 kts | 186° |
| 2026-04-14 13:27 | 49.32203 | 8.48117 | 20612 ft | 387 kts | 186° |
| 2026-04-14 13:27 | 49.29517 | 8.47768 | 21177 ft | 389 kts | 186° |
| 2026-04-14 13:27 | 49.26807 | 8.47415 | 21742 ft | 391 kts | 186° |
| 2026-04-14 13:27 | 49.24121 | 8.47065 | 22279 ft | 393 kts | 186° |
| 2026-04-14 13:28 | 49.21377 | 8.46709 | 22796 ft | 396 kts | 186° |
| 2026-04-14 13:28 | 49.18616 | 8.46350 | 23345 ft | 398 kts | 186° |
| 2026-04-14 13:28 | 49.15849 | 8.45990 | 23863 ft | 400 kts | 186° |
| 2026-04-14 13:28 | 49.13062 | 8.45629 | 24275 ft | 403 kts | 186° |
| 2026-04-14 13:29 | 49.10255 | 8.45265 | 24673 ft | 406 kts | 186° |
| 2026-04-14 13:29 | 49.07462 | 8.44898 | 25051 ft | 409 kts | 187° |
| 2026-04-14 13:29 | 49.04635 | 8.44198 | 25419 ft | 411 kts | 193° |
| 2026-04-14 13:29 | 49.01837 | 8.43226 | 25807 ft | 414 kts | 194° |
| 2026-04-14 13:30 | 48.99009 | 8.42215 | 26170 ft | 417 kts | 194° |
| 2026-04-14 13:30 | 48.96165 | 8.41212 | 26532 ft | 421 kts | 194° |
| 2026-04-14 13:30 | 48.93328 | 8.40220 | 26892 ft | 424 kts | 194° |
| 2026-04-14 13:30 | 48.90437 | 8.39212 | 27248 ft | 427 kts | 194° |
| 2026-04-14 13:31 | 48.87522 | 8.38201 | 27598 ft | 430 kts | 194° |
| 2026-04-14 13:31 | 48.84589 | 8.37184 | 27932 ft | 433 kts | 194° |
| 2026-04-14 13:31 | 48.81670 | 8.36174 | 28277 ft | 436 kts | 194° |
| 2026-04-14 13:31 | 48.78696 | 8.35141 | 28611 ft | 439 kts | 194° |
| 2026-04-14 13:32 | 48.75710 | 8.34075 | 28934 ft | 442 kts | 195° |
| 2026-04-14 13:32 | 48.72700 | 8.32969 | 29260 ft | 444 kts | 195° |
| 2026-04-14 13:32 | 48.69684 | 8.31859 | 29568 ft | 447 kts | 195° |
| 2026-04-14 13:32 | 48.66684 | 8.30759 | 29869 ft | 450 kts | 195° |
| 2026-04-14 13:33 | 48.63623 | 8.29640 | 30159 ft | 453 kts | 195° |
| 2026-04-14 13:33 | 48.60552 | 8.28524 | 30444 ft | 454 kts | 194° |
| 2026-04-14 13:33 | 48.57473 | 8.27407 | 30751 ft | 455 kts | 194° |
| 2026-04-14 13:33 | 48.54390 | 8.26290 | 31038 ft | 455 kts | 194° |
| 2026-04-14 13:34 | 48.48124 | 8.24754 | 31566 ft | 458 kts | 180° |
| 2026-04-14 13:34 | 48.44990 | 8.25236 | 31827 ft | 459 kts | 172° |
| 2026-04-14 13:34 | 48.41822 | 8.26037 | 32109 ft | 460 kts | 171° |
| 2026-04-14 13:35 | 48.38664 | 8.26860 | 32382 ft | 460 kts | 171° |
| 2026-04-14 13:35 | 48.35539 | 8.27651 | 32646 ft | 460 kts | 171° |
| 2026-04-14 13:35 | 48.32372 | 8.28430 | 32916 ft | 460 kts | 171° |
| 2026-04-14 13:35 | 48.29208 | 8.29193 | 33167 ft | 460 kts | 171° |
| 2026-04-14 13:36 | 48.26035 | 8.29952 | 33422 ft | 460 kts | 171° |
| 2026-04-14 13:36 | 48.22869 | 8.30712 | 33666 ft | 461 kts | 171° |
| 2026-04-14 13:36 | 48.19730 | 8.31469 | 33894 ft | 461 kts | 171° |
| 2026-04-14 13:36 | 48.16560 | 8.32232 | 34127 ft | 461 kts | 171° |
| 2026-04-14 13:37 | 48.13388 | 8.32999 | 34323 ft | 461 kts | 171° |
| 2026-04-14 13:37 | 48.10210 | 8.33770 | 34499 ft | 461 kts | 171° |
| 2026-04-14 13:37 | 48.07033 | 8.34542 | 34680 ft | 461 kts | 171° |
| 2026-04-14 13:37 | 48.03857 | 8.35312 | 34860 ft | 462 kts | 171° |
| 2026-04-14 13:38 | 48.00725 | 8.36070 | 35035 ft | 462 kts | 171° |
| 2026-04-14 13:38 | 47.97546 | 8.36836 | 35190 ft | 462 kts | 171° |
| 2026-04-14 13:38 | 47.94368 | 8.37599 | 35222 ft | 461 kts | 171° |
| 2026-04-14 13:39 | 47.88021 | 8.39125 | 35206 ft | 460 kts | 171° |
| 2026-04-14 13:39 | 47.81734 | 8.40635 | 35197 ft | 460 kts | 171° |
| 2026-04-14 13:40 | 47.75392 | 8.42154 | 35197 ft | 460 kts | 171° |
| 2026-04-14 13:40 | 47.69084 | 8.43640 | 35190 ft | 454 kts | 173° |
| 2026-04-14 13:41 | 47.62877 | 8.44606 | 35198 ft | 451 kts | 175° |
| 2026-04-14 13:41 | 47.56620 | 8.45513 | 35199 ft | 451 kts | 175° |
| 2026-04-14 13:42 | 47.50360 | 8.46433 | 35199 ft | 451 kts | 175° |
| 2026-04-14 13:42 | 47.44136 | 8.47347 | 35198 ft | 451 kts | 175° |
| 2026-04-14 13:43 | 47.37870 | 8.48266 | 35202 ft | 451 kts | 175° |
| 2026-04-14 13:43 | 47.31647 | 8.49174 | 35197 ft | 451 kts | 175° |
| 2026-04-14 13:44 | 47.25380 | 8.50088 | 35190 ft | 452 kts | 175° |
| 2026-04-14 13:44 | 47.19097 | 8.51003 | 35190 ft | 453 kts | 175° |
| 2026-04-14 13:45 | 47.12858 | 8.51913 | 35182 ft | 453 kts | 175° |
| 2026-04-14 13:45 | 47.06564 | 8.52824 | 35170 ft | 453 kts | 175° |
| 2026-04-14 13:46 | 47.00286 | 8.53730 | 35174 ft | 453 kts | 174° |
| 2026-04-14 13:46 | 46.94011 | 8.54637 | 35167 ft | 452 kts | 175° |
| 2026-04-14 13:47 | 46.87765 | 8.55541 | 35153 ft | 453 kts | 175° |
| 2026-04-14 13:47 | 46.81474 | 8.56445 | 35136 ft | 454 kts | 174° |
| 2026-04-14 13:48 | 46.75186 | 8.57349 | 35142 ft | 451 kts | 174° |
| 2026-04-14 13:48 | 46.68945 | 8.58238 | 35110 ft | 450 kts | 174° |
| 2026-04-14 13:49 | 46.62688 | 8.59128 | 35081 ft | 451 kts | 174° |
| 2026-04-14 13:49 | 46.56475 | 8.60014 | 35069 ft | 450 kts | 174° |
| 2026-04-14 13:50 | 46.50213 | 8.60901 | 35066 ft | 451 kts | 174° |
| 2026-04-14 13:50 | 46.43980 | 8.61778 | 35038 ft | 451 kts | 174° |
| 2026-04-14 13:51 | 46.37730 | 8.62659 | 35013 ft | 449 kts | 174° |
| 2026-04-14 13:51 | 46.31520 | 8.63534 | 34987 ft | 450 kts | 174° |
| 2026-04-14 13:52 | 46.25270 | 8.64412 | 34977 ft | 451 kts | 174° |
| 2026-04-14 13:52 | 46.19012 | 8.65288 | 34959 ft | 449 kts | 174° |
| 2026-04-14 13:53 | 46.12767 | 8.66165 | 34957 ft | 450 kts | 173° |
| 2026-04-14 13:53 | 46.06749 | 8.68395 | 34969 ft | 449 kts | 159° |
| 2026-04-14 13:54 | 46.00918 | 8.71640 | 34965 ft | 449 kts | 158° |
| 2026-04-14 13:54 | 45.95101 | 8.74835 | 34971 ft | 448 kts | 158° |
| 2026-04-14 13:55 | 45.89266 | 8.77999 | 34965 ft | 447 kts | 158° |
| 2026-04-14 13:55 | 45.83426 | 8.81163 | 34969 ft | 448 kts | 158° |
| 2026-04-14 13:56 | 45.77604 | 8.84310 | 34975 ft | 448 kts | 159° |
| 2026-04-14 13:56 | 45.71741 | 8.87459 | 34978 ft | 449 kts | 158° |
| 2026-04-14 13:57 | 45.65918 | 8.90587 | 34994 ft | 449 kts | 158° |
| 2026-04-14 13:57 | 45.60053 | 8.93730 | 34994 ft | 449 kts | 159° |
| 2026-04-14 13:58 | 45.54196 | 8.96863 | 34991 ft | 449 kts | 159° |
| 2026-04-14 13:58 | 45.48375 | 8.99969 | 35009 ft | 447 kts | 159° |
| 2026-04-14 13:59 | 45.42536 | 9.03078 | 35013 ft | 447 kts | 158° |
| 2026-04-14 13:59 | 45.36687 | 9.06188 | 35015 ft | 449 kts | 158° |
| 2026-04-14 14:00 | 45.30838 | 9.09288 | 35010 ft | 449 kts | 158° |
| 2026-04-14 14:00 | 45.24972 | 9.12392 | 35008 ft | 449 kts | 159° |
| 2026-04-14 14:01 | 45.19146 | 9.15467 | 34999 ft | 450 kts | 159° |
| 2026-04-14 14:01 | 45.13274 | 9.18559 | 34993 ft | 450 kts | 158° |
| 2026-04-14 14:02 | 45.07401 | 9.21645 | 34993 ft | 450 kts | 158° |
| 2026-04-14 14:02 | 45.01554 | 9.24716 | 34994 ft | 444 kts | 159° |
| 2026-04-14 14:03 | 44.95752 | 9.27756 | 34986 ft | 444 kts | 160° |
| 2026-04-14 14:03 | 44.89991 | 9.30753 | 34986 ft | 444 kts | 160° |
| 2026-04-14 14:04 | 44.85125 | 9.33290 | 34988 ft | 444 kts | 160° |
| 2026-04-14 14:04 | 44.79357 | 9.36291 | 34984 ft | 444 kts | 160° |
| 2026-04-14 14:05 | 44.73550 | 9.39304 | 34984 ft | 444 kts | 160° |
| 2026-04-14 14:05 | 44.67753 | 9.42307 | 34977 ft | 443 kts | 160° |
| 2026-04-14 14:06 | 44.61983 | 9.45289 | 34971 ft | 444 kts | 160° |
| 2026-04-14 14:06 | 44.56203 | 9.48270 | 34963 ft | 440 kts | 161° |
| 2026-04-14 14:07 | 44.51440 | 9.50717 | 34959 ft | 438 kts | 160° |
| 2026-04-14 14:07 | 44.44612 | 9.54225 | 34961 ft | 437 kts | 161° |
| 2026-04-14 14:08 | 44.38925 | 9.57139 | 34959 ft | 437 kts | 161° |
| 2026-04-14 14:08 | 44.33205 | 9.60065 | 34948 ft | 438 kts | 161° |
| 2026-04-14 14:09 | 44.27460 | 9.62996 | 34943 ft | 437 kts | 161° |
| 2026-04-14 14:09 | 44.21762 | 9.65897 | 34929 ft | 439 kts | 161° |
| 2026-04-14 14:10 | 44.16009 | 9.68821 | 34918 ft | 439 kts | 161° |
| 2026-04-14 14:10 | 44.10278 | 9.71728 | 34911 ft | 436 kts | 161° |
| 2026-04-14 14:11 | 44.04603 | 9.74598 | 34928 ft | 437 kts | 161° |
| 2026-04-14 14:11 | 43.98879 | 9.77492 | 34927 ft | 437 kts | 160° |
| 2026-04-14 14:12 | 43.93181 | 9.80368 | 34927 ft | 438 kts | 160° |
| 2026-04-14 14:12 | 43.87444 | 9.83248 | 34923 ft | 438 kts | 160° |
| 2026-04-14 14:13 | 43.81741 | 9.86109 | 34918 ft | 433 kts | 160° |
| 2026-04-14 14:13 | 43.76103 | 9.88931 | 34916 ft | 432 kts | 160° |
| 2026-04-14 14:14 | 43.70430 | 9.91768 | 34910 ft | 432 kts | 160° |
| 2026-04-14 14:14 | 43.64763 | 9.94594 | 34909 ft | 433 kts | 160° |
| 2026-04-14 14:15 | 43.59140 | 9.97396 | 34905 ft | 432 kts | 160° |
| 2026-04-14 14:15 | 43.53474 | 10.00212 | 34907 ft | 432 kts | 160° |
| 2026-04-14 14:16 | 43.47819 | 10.03013 | 34911 ft | 432 kts | 160° |
| 2026-04-14 14:16 | 43.42163 | 10.05810 | 34902 ft | 432 kts | 160° |
| 2026-04-14 14:17 | 43.33706 | 10.09983 | 34902 ft | 432 kts | 160° |
| 2026-04-14 14:17 | 43.28047 | 10.12772 | 34903 ft | 432 kts | 160° |
| 2026-04-14 14:18 | 43.22373 | 10.15564 | 34899 ft | 432 kts | 160° |
| 2026-04-14 14:18 | 43.16704 | 10.18345 | 34903 ft | 432 kts | 160° |
| 2026-04-14 14:19 | 43.11071 | 10.21104 | 34897 ft | 431 kts | 160° |
| 2026-04-14 14:19 | 43.05468 | 10.23840 | 34886 ft | 421 kts | 160° |
| 2026-04-14 14:20 | 42.99937 | 10.26539 | 34897 ft | 422 kts | 160° |
| 2026-04-14 14:20 | 42.94424 | 10.29221 | 34891 ft | 422 kts | 160° |
| 2026-04-14 14:21 | 42.88875 | 10.31916 | 34894 ft | 422 kts | 160° |
| 2026-04-14 14:21 | 42.83327 | 10.34610 | 34891 ft | 422 kts | 160° |
| 2026-04-14 14:22 | 42.77779 | 10.37293 | 34891 ft | 422 kts | 160° |
| 2026-04-14 14:22 | 42.72287 | 10.39996 | 34895 ft | 422 kts | 158° |
| 2026-04-14 14:23 | 42.66835 | 10.42974 | 34888 ft | 422 kts | 158° |
| 2026-04-14 14:23 | 42.61375 | 10.45964 | 34888 ft | 422 kts | 158° |
| 2026-04-14 14:24 | 42.55927 | 10.48937 | 34889 ft | 422 kts | 158° |
| 2026-04-14 14:24 | 42.50464 | 10.51911 | 34887 ft | 422 kts | 158° |
| 2026-04-14 14:25 | 42.45037 | 10.54859 | 34885 ft | 422 kts | 158° |
| 2026-04-14 14:25 | 42.39583 | 10.57818 | 34877 ft | 421 kts | 158° |
| 2026-04-14 14:26 | 42.34194 | 10.60737 | 34882 ft | 419 kts | 158° |
| 2026-04-14 14:26 | 42.28765 | 10.63671 | 34885 ft | 419 kts | 158° |
| 2026-04-14 14:27 | 42.23340 | 10.66594 | 34885 ft | 419 kts | 158° |
| 2026-04-14 14:27 | 42.17951 | 10.69497 | 34885 ft | 419 kts | 158° |
| 2026-04-14 14:28 | 42.12532 | 10.72411 | 34885 ft | 419 kts | 158° |
| 2026-04-14 14:28 | 42.07151 | 10.75297 | 34888 ft | 418 kts | 158° |
| 2026-04-14 14:29 | 42.01739 | 10.78193 | 34886 ft | 418 kts | 158° |
| 2026-04-14 14:29 | 41.96330 | 10.81082 | 34885 ft | 419 kts | 158° |
| 2026-04-14 14:30 | 41.90895 | 10.83982 | 34884 ft | 419 kts | 158° |
| 2026-04-14 14:30 | 41.85508 | 10.86849 | 34893 ft | 419 kts | 158° |
| 2026-04-14 14:31 | 41.80080 | 10.89736 | 34889 ft | 419 kts | 158° |
| 2026-04-14 14:31 | 41.74646 | 10.92617 | 34891 ft | 419 kts | 158° |
| 2026-04-14 14:32 | 41.69218 | 10.95492 | 34888 ft | 419 kts | 158° |
| 2026-04-14 14:32 | 41.63782 | 10.98366 | 34891 ft | 420 kts | 158° |
| 2026-04-14 14:33 | 41.58327 | 11.01244 | 34888 ft | 421 kts | 158° |
| 2026-04-14 14:33 | 41.52880 | 11.04110 | 34888 ft | 421 kts | 158° |
| 2026-04-14 14:34 | 41.44724 | 11.08392 | 34898 ft | 421 kts | 158° |
| 2026-04-14 14:35 | 41.39261 | 11.11256 | 34885 ft | 421 kts | 158° |
| 2026-04-14 14:35 | 41.33792 | 11.14125 | 34891 ft | 422 kts | 158° |
| 2026-04-14 14:36 | 41.28355 | 11.16967 | 34887 ft | 422 kts | 158° |
| 2026-04-14 14:36 | 41.22869 | 11.19826 | 34896 ft | 422 kts | 158° |
| 2026-04-14 14:37 | 41.17420 | 11.22665 | 34888 ft | 422 kts | 159° |
| 2026-04-14 14:37 | 41.11949 | 11.25512 | 34886 ft | 422 kts | 159° |
| 2026-04-14 14:38 | 41.06473 | 11.28350 | 34886 ft | 422 kts | 159° |
| 2026-04-14 14:38 | 41.01029 | 11.31172 | 34877 ft | 422 kts | 159° |
| 2026-04-14 14:39 | 40.95577 | 11.33995 | 34882 ft | 420 kts | 159° |
| 2026-04-14 14:39 | 40.90119 | 11.36804 | 34882 ft | 420 kts | 159° |
| 2026-04-14 14:40 | 40.84669 | 11.39615 | 34879 ft | 420 kts | 159° |
| 2026-04-14 14:40 | 40.79255 | 11.42400 | 34879 ft | 420 kts | 159° |
| 2026-04-14 14:41 | 40.73792 | 11.45213 | 34878 ft | 421 kts | 160° |
| 2026-04-14 14:41 | 40.68312 | 11.48014 | 34873 ft | 421 kts | 160° |
| 2026-04-14 14:42 | 40.62877 | 11.50793 | 34875 ft | 420 kts | 160° |
| 2026-04-14 14:42 | 40.58305 | 11.53129 | 34879 ft | 428 kts | 160° |
| 2026-04-14 14:43 | 40.52726 | 11.55972 | 34879 ft | 429 kts | 160° |
| 2026-04-14 14:43 | 40.47184 | 11.58801 | 34871 ft | 429 kts | 160° |
| 2026-04-14 14:44 | 40.41612 | 11.61637 | 34869 ft | 429 kts | 160° |
| 2026-04-14 14:44 | 40.36046 | 11.64465 | 34868 ft | 429 kts | 160° |
| 2026-04-14 14:45 | 40.30458 | 11.67299 | 34873 ft | 429 kts | 160° |
| 2026-04-14 14:45 | 40.24956 | 11.70074 | 34867 ft | 425 kts | 160° |
| 2026-04-14 14:46 | 40.19419 | 11.72854 | 34870 ft | 425 kts | 160° |
| 2026-04-14 14:46 | 40.13884 | 11.75628 | 34871 ft | 425 kts | 160° |
| 2026-04-14 14:47 | 40.08385 | 11.78397 | 34874 ft | 425 kts | 160° |
| 2026-04-14 14:47 | 40.02849 | 11.81165 | 34871 ft | 425 kts | 160° |
| 2026-04-14 14:48 | 39.97349 | 11.83925 | 34870 ft | 425 kts | 160° |
| 2026-04-14 14:48 | 39.91791 | 11.86713 | 34871 ft | 430 kts | 160° |
| 2026-04-14 14:49 | 39.86172 | 11.89568 | 34875 ft | 438 kts | 158° |
| 2026-04-14 14:49 | 39.80578 | 11.92714 | 34874 ft | 440 kts | 158° |
| 2026-04-14 14:50 | 39.74950 | 11.95890 | 34871 ft | 441 kts | 158° |
| 2026-04-14 14:50 | 39.69348 | 11.99034 | 34870 ft | 441 kts | 158° |
| 2026-04-14 14:51 | 39.63711 | 12.02188 | 34869 ft | 441 kts | 158° |
| 2026-04-14 14:51 | 39.58076 | 12.05345 | 34790 ft | 437 kts | 158° |
| 2026-04-14 14:51 | 39.55324 | 12.06884 | 34375 ft | 432 kts | 158° |
| 2026-04-14 14:52 | 39.52552 | 12.08430 | 34086 ft | 431 kts | 158° |
| 2026-04-14 14:52 | 39.49803 | 12.09965 | 33459 ft | 429 kts | 159° |
| 2026-04-14 14:52 | 39.47073 | 12.11489 | 32641 ft | 429 kts | 159° |
| 2026-04-14 14:52 | 39.44361 | 12.12995 | 31822 ft | 429 kts | 159° |
| 2026-04-14 14:53 | 39.41616 | 12.14516 | 30995 ft | 429 kts | 159° |
| 2026-04-14 14:53 | 39.38857 | 12.16054 | 30128 ft | 430 kts | 159° |
| 2026-04-14 14:53 | 39.36095 | 12.17592 | 29086 ft | 432 kts | 159° |
| 2026-04-14 14:53 | 39.33328 | 12.19130 | 28071 ft | 433 kts | 159° |
| 2026-04-14 14:54 | 39.30585 | 12.20661 | 27112 ft | 433 kts | 159° |
| 2026-04-14 14:54 | 39.27822 | 12.22199 | 26148 ft | 433 kts | 159° |
| 2026-04-14 14:54 | 39.25033 | 12.23738 | 25213 ft | 434 kts | 159° |
| 2026-04-14 14:54 | 39.22261 | 12.25263 | 24480 ft | 430 kts | 159° |
| 2026-04-14 14:55 | 39.19493 | 12.26794 | 23896 ft | 434 kts | 158° |
| 2026-04-14 14:55 | 39.16763 | 12.28308 | 23217 ft | 429 kts | 158° |
| 2026-04-14 14:55 | 39.14036 | 12.29815 | 22409 ft | 425 kts | 158° |
| 2026-04-14 14:55 | 39.11316 | 12.31313 | 21889 ft | 431 kts | 158° |
| 2026-04-14 14:56 | 39.05748 | 12.34385 | 20999 ft | 433 kts | 158° |
| 2026-04-14 14:56 | 39.03001 | 12.35896 | 20366 ft | 426 kts | 158° |
| 2026-04-14 14:56 | 39.00292 | 12.37386 | 19704 ft | 419 kts | 158° |
| 2026-04-14 14:57 | 38.97619 | 12.38852 | 19061 ft | 412 kts | 158° |
| 2026-04-14 14:57 | 38.95001 | 12.40293 | 18435 ft | 407 kts | 157° |
| 2026-04-14 14:57 | 38.92405 | 12.41716 | 17700 ft | 403 kts | 158° |
| 2026-04-14 14:57 | 38.89865 | 12.43112 | 17015 ft | 399 kts | 158° |
| 2026-04-14 14:58 | 38.87319 | 12.44514 | 16401 ft | 394 kts | 157° |
| 2026-04-14 14:58 | 38.84846 | 12.45970 | 15835 ft | 389 kts | 156° |
| 2026-04-14 14:58 | 38.82411 | 12.47437 | 15290 ft | 384 kts | 156° |
| 2026-04-14 14:58 | 38.80001 | 12.48887 | 14754 ft | 379 kts | 155° |
| 2026-04-14 14:59 | 38.77629 | 12.50310 | 14309 ft | 373 kts | 155° |
| 2026-04-14 14:59 | 38.75316 | 12.51694 | 13892 ft | 367 kts | 155° |
| 2026-04-14 14:59 | 38.73005 | 12.53077 | 13477 ft | 366 kts | 155° |
| 2026-04-14 14:59 | 38.70703 | 12.54458 | 12976 ft | 365 kts | 155° |
| 2026-04-14 15:00 | 38.68401 | 12.55841 | 12413 ft | 364 kts | 155° |
| 2026-04-14 15:00 | 38.66107 | 12.57218 | 11927 ft | 360 kts | 155° |
| 2026-04-14 15:00 | 38.63881 | 12.58555 | 11615 ft | 346 kts | 155° |
| 2026-04-14 15:00 | 38.61775 | 12.59815 | 11385 ft | 331 kts | 155° |
| 2026-04-14 15:01 | 38.59729 | 12.61041 | 11199 ft | 316 kts | 155° |
| 2026-04-14 15:01 | 38.57776 | 12.62209 | 11024 ft | 302 kts | 155° |
| 2026-04-14 15:01 | 38.55914 | 12.63325 | 10854 ft | 288 kts | 155° |
| 2026-04-14 15:01 | 38.54129 | 12.64391 | 10579 ft | 280 kts | 155° |
| 2026-04-14 15:02 | 38.52366 | 12.65442 | 10103 ft | 280 kts | 155° |
| 2026-04-14 15:02 | 38.50599 | 12.66496 | 9627 ft | 280 kts | 155° |
| 2026-04-14 15:02 | 38.48863 | 12.67530 | 9181 ft | 277 kts | 155° |
| 2026-04-14 15:02 | 38.47120 | 12.68570 | 8778 ft | 274 kts | 155° |
| 2026-04-14 15:03 | 38.45391 | 12.69608 | 8401 ft | 275 kts | 155° |
| 2026-04-14 15:03 | 38.43661 | 12.70642 | 8043 ft | 274 kts | 155° |
| 2026-04-14 15:03 | 38.41946 | 12.71666 | 7877 ft | 271 kts | 155° |
| 2026-04-14 15:03 | 38.40236 | 12.72691 | 7840 ft | 269 kts | 155° |
| 2026-04-14 15:04 | 38.38534 | 12.73706 | 7295 ft | 273 kts | 155° |
| 2026-04-14 15:04 | 38.36807 | 12.74733 | 6804 ft | 274 kts | 155° |
| 2026-04-14 15:04 | 38.35102 | 12.75747 | 6389 ft | 272 kts | 155° |
| 2026-04-14 15:04 | 38.33395 | 12.76762 | 6040 ft | 267 kts | 155° |
| 2026-04-14 15:05 | 38.31733 | 12.77746 | 5857 ft | 256 kts | 155° |
| 2026-04-14 15:05 | 38.30149 | 12.78677 | 5706 ft | 244 kts | 155° |
| 2026-04-14 15:05 | 38.28661 | 12.79552 | 5558 ft | 233 kts | 154° |
| 2026-04-14 15:05 | 38.27201 | 12.80413 | 5254 ft | 229 kts | 154° |
| 2026-04-14 15:06 | 38.25756 | 12.81267 | 4949 ft | 228 kts | 153° |
| 2026-04-14 15:06 | 38.24322 | 12.82110 | 4614 ft | 226 kts | 154° |
| 2026-04-14 15:06 | 38.22880 | 12.82902 | 4260 ft | 225 kts | 155° |
| 2026-04-14 15:06 | 38.21435 | 12.83675 | 3930 ft | 224 kts | 155° |
| 2026-04-14 15:07 | 38.20025 | 12.84431 | 3715 ft | 215 kts | 155° |
| 2026-04-14 15:07 | 38.18679 | 12.85152 | 3482 ft | 206 kts | 155° |
| 2026-04-14 15:07 | 38.17373 | 12.85857 | 3135 ft | 203 kts | 156° |
| 2026-04-14 15:07 | 38.16098 | 12.86546 | 2878 ft | 193 kts | 157° |
| 2026-04-14 15:08 | 38.14895 | 12.87194 | 2574 ft | 189 kts | 157° |
| 2026-04-14 15:08 | 38.13672 | 12.87857 | 2318 ft | 192 kts | 157° |
| 2026-04-14 15:08 | 38.12447 | 12.88534 | 2270 ft | 192 kts | 153° |
| 2026-04-14 15:08 | 38.11400 | 12.89576 | 2258 ft | 193 kts | 123° |
| 2026-04-14 15:09 | 38.11151 | 12.91209 | 2269 ft | 193 kts | 78° |
| 2026-04-14 15:09 | 38.11759 | 12.92714 | 2303 ft | 193 kts | 58° |
| 2026-04-14 15:09 | 38.12407 | 12.94204 | 2337 ft | 193 kts | 63° |
| 2026-04-14 15:09 | 38.12963 | 12.95693 | 2264 ft | 181 kts | 65° |
| 2026-04-14 15:10 | 38.13500 | 12.97126 | 2013 ft | 178 kts | 65° |
| 2026-04-14 15:10 | 38.13993 | 12.98550 | 1747 ft | 178 kts | 65° |
| 2026-04-14 15:10 | 38.14477 | 12.99951 | 1521 ft | 164 kts | 65° |
| 2026-04-14 15:10 | 38.14909 | 13.01191 | 1251 ft | 141 kts | 63° |
| 2026-04-14 15:11 | 38.15275 | 13.02332 | 1105 ft | 137 kts | 63° |
| 2026-04-14 15:11 | 38.15666 | 13.03427 | 947 ft | 137 kts | 64° |
| 2026-04-14 15:11 | 38.16017 | 13.04567 | 742 ft | 137 kts | 65° |
| 2026-04-14 15:11 | 38.16377 | 13.05675 | 548 ft | 137 kts | 60° |
| 2026-04-14 15:12 | 38.16801 | 13.06767 | 391 ft | 137 kts | 60° |
| 2026-04-14 15:12 | 38.17184 | 13.07885 | 236 ft | 139 kts | 64° |
| 2026-04-14 15:12 | 38.17563 | 13.09015 | 67 ft | 137 kts | 61° |
| 2026-04-14 15:12 | 38.17900 | 13.10023 | 57 ft | 99 kts | 67° |
| 2026-04-14 15:13 | 38.18076 | 13.10583 | 52 ft | 23 kts | 63° |
| 2026-04-14 15:13 | 38.18124 | 13.10704 | 55 ft | 14 kts | 68° |
| 2026-04-14 15:13 | 38.18178 | 13.10659 | 51 ft | 14 kts | 275° |
| 2026-04-14 15:13 | 38.18187 | 13.10528 | 55 ft | 16 kts | 279° |
| 2026-04-14 15:14 | 38.18216 | 13.10391 | 57 ft | 14 kts | 317° |
| 2026-04-14 15:14 | 38.18302 | 13.10327 | 58 ft | 13 kts | 332° |
| 2026-04-14 15:14 | 38.18364 | 13.10353 | 54 ft | 11 kts | 49° |
| 2026-04-14 15:14 | 38.18405 | 13.10443 | 57 ft | 13 kts | 63° |
| 2026-04-14 15:15 | 38.18423 | 13.10492 | 53 ft | 7 kts | 64° |
| 2026-04-14 15:15 | 38.18467 | 13.10513 | 51 ft | 9 kts | 346° |
| 2026-04-14 15:15 | 38.18513 | 13.10489 | 54 ft | 0 kts | 338° |